sensor_id;sensor_type;location;lat;lon;timestamp;P1;durP1;ratioP1;P2;durP2;ratioP2
5702;SDS011;2876;51.738;10.050;2023-12-04T00:00:30;24.83;;;13.77;;
5702;SDS011;2876;51.738;10.050;2023-12-04T00:06:32;28.47;;;14.50;;
5702;SDS011;2876;51.738;10.050;2023-12-04T00:12:34;29.50;;;15.40;;
5702;SDS011;2876;51.738;10.050;2023-12-04T00:18:36;20.57;;;11.80;;
5702;SDS011;2876;51.738;10.050;2023-12-04T00:24:38;26.30;;;12.03;;
5702;SDS011;2876;51.738;10.050;2023-12-04T00:30:41;24.27;;;13.80;;
5702;SDS011;2876;51.738;10.050;2023-12-04T00:36:43;25.47;;;14.43;;
5702;SDS011;2876;51.738;10.050;2023-12-04T00:42:45;30.53;;;14.23;;
5702;SDS011;2876;51.738;10.050;2023-12-04T00:48:47;23.03;;;13.63;;
5702;SDS011;2876;51.738;10.050;2023-12-04T00:54:49;23.13;;;13.73;;
5702;SDS011;2876;51.738;10.050;2023-12-04T01:00:51;26.27;;;14.30;;
5702;SDS011;2876;51.738;10.050;2023-12-04T01:06:53;27.93;;;13.37;;
5702;SDS011;2876;51.738;10.050;2023-12-04T01:12:55;19.57;;;12.47;;
5702;SDS011;2876;51.738;10.050;2023-12-04T01:18:57;22.83;;;13.20;;
5702;SDS011;2876;51.738;10.050;2023-12-04T01:24:59;21.47;;;12.20;;
5702;SDS011;2876;51.738;10.050;2023-12-04T01:31:02;24.03;;;12.17;;
5702;SDS011;2876;51.738;10.050;2023-12-04T01:37:04;20.60;;;11.60;;
5702;SDS011;2876;51.738;10.050;2023-12-04T01:43:06;20.10;;;11.43;;
5702;SDS011;2876;51.738;10.050;2023-12-04T01:49:08;22.53;;;11.93;;
5702;SDS011;2876;51.738;10.050;2023-12-04T01:55:10;20.50;;;12.10;;
5702;SDS011;2876;51.738;10.050;2023-12-04T02:01:14;24.07;;;11.20;;
5702;SDS011;2876;51.738;10.050;2023-12-04T02:07:16;17.00;;;10.20;;
5702;SDS011;2876;51.738;10.050;2023-12-04T02:13:18;20.80;;;10.97;;
5702;SDS011;2876;51.738;10.050;2023-12-04T02:19:20;21.60;;;10.63;;
5702;SDS011;2876;51.738;10.050;2023-12-04T02:25:23;18.53;;;10.87;;
5702;SDS011;2876;51.738;10.050;2023-12-04T02:31:36;20.00;;;10.83;;
5702;SDS011;2876;51.738;10.050;2023-12-04T02:37:41;20.63;;;11.03;;
5702;SDS011;2876;51.738;10.050;2023-12-04T02:43:44;19.67;;;8.00;;
5702;SDS011;2876;51.738;10.050;2023-12-04T02:49:46;13.73;;;8.30;;
5702;SDS011;2876;51.738;10.050;2023-12-04T02:55:48;19.00;;;9.97;;
5702;SDS011;2876;51.738;10.050;2023-12-04T03:01:50;17.40;;;10.20;;
5702;SDS011;2876;51.738;10.050;2023-12-04T03:07:52;18.03;;;9.77;;
5702;SDS011;2876;51.738;10.050;2023-12-04T03:13:54;20.37;;;11.27;;
5702;SDS011;2876;51.738;10.050;2023-12-04T03:19:56;18.73;;;9.70;;
5702;SDS011;2876;51.738;10.050;2023-12-04T03:25:58;17.37;;;9.93;;
5702;SDS011;2876;51.738;10.050;2023-12-04T03:31:59;18.33;;;10.33;;
5702;SDS011;2876;51.738;10.050;2023-12-04T03:38:01;19.70;;;9.63;;
5702;SDS011;2876;51.738;10.050;2023-12-04T03:44:03;15.23;;;9.37;;
5702;SDS011;2876;51.738;10.050;2023-12-04T03:50:06;17.47;;;10.27;;
5702;SDS011;2876;51.738;10.050;2023-12-04T03:56:08;18.73;;;10.43;;
5702;SDS011;2876;51.738;10.050;2023-12-04T04:02:11;19.40;;;9.10;;
5702;SDS011;2876;51.738;10.050;2023-12-04T04:08:13;15.07;;;9.30;;
5702;SDS011;2876;51.738;10.050;2023-12-04T04:14:15;16.47;;;9.50;;
5702;SDS011;2876;51.738;10.050;2023-12-04T04:20:17;17.23;;;10.00;;
5702;SDS011;2876;51.738;10.050;2023-12-04T04:26:19;18.60;;;9.93;;
5702;SDS011;2876;51.738;10.050;2023-12-04T04:32:21;17.93;;;10.40;;
5702;SDS011;2876;51.738;10.050;2023-12-04T04:38:23;18.70;;;10.13;;
5702;SDS011;2876;51.738;10.050;2023-12-04T04:44:25;18.63;;;10.23;;
5702;SDS011;2876;51.738;10.050;2023-12-04T04:50:28;14.87;;;9.63;;
5702;SDS011;2876;51.738;10.050;2023-12-04T04:56:31;16.00;;;9.47;;
5702;SDS011;2876;51.738;10.050;2023-12-04T05:02:33;18.77;;;10.90;;
5702;SDS011;2876;51.738;10.050;2023-12-04T05:08:36;17.33;;;10.00;;
5702;SDS011;2876;51.738;10.050;2023-12-04T05:14:38;18.50;;;8.93;;
5702;SDS011;2876;51.738;10.050;2023-12-04T05:20:40;18.40;;;9.37;;
5702;SDS011;2876;51.738;10.050;2023-12-04T05:26:43;14.27;;;8.50;;
5702;SDS011;2876;51.738;10.050;2023-12-04T05:32:45;16.37;;;9.00;;
5702;SDS011;2876;51.738;10.050;2023-12-04T05:38:47;14.43;;;8.93;;
5702;SDS011;2876;51.738;10.050;2023-12-04T05:44:49;15.93;;;9.50;;
5702;SDS011;2876;51.738;10.050;2023-12-04T05:50:51;15.00;;;8.67;;
5702;SDS011;2876;51.738;10.050;2023-12-04T05:56:53;18.63;;;9.80;;
5702;SDS011;2876;51.738;10.050;2023-12-04T06:02:55;16.30;;;9.93;;
5702;SDS011;2876;51.738;10.050;2023-12-04T06:08:57;15.93;;;9.47;;
5702;SDS011;2876;51.738;10.050;2023-12-04T06:14:59;15.07;;;8.90;;
5702;SDS011;2876;51.738;10.050;2023-12-04T06:21:01;16.03;;;9.43;;
5702;SDS011;2876;51.738;10.050;2023-12-04T06:27:04;15.70;;;9.00;;
5702;SDS011;2876;51.738;10.050;2023-12-04T06:33:08;20.17;;;11.00;;
5702;SDS011;2876;51.738;10.050;2023-12-04T06:39:11;17.30;;;9.13;;
5702;SDS011;2876;51.738;10.050;2023-12-04T06:45:14;20.40;;;9.10;;
5702;SDS011;2876;51.738;10.050;2023-12-04T06:51:16;14.30;;;9.07;;
5702;SDS011;2876;51.738;10.050;2023-12-04T06:57:18;18.83;;;10.37;;
5702;SDS011;2876;51.738;10.050;2023-12-04T07:03:20;15.23;;;9.67;;
5702;SDS011;2876;51.738;10.050;2023-12-04T07:09:22;17.97;;;10.87;;
5702;SDS011;2876;51.738;10.050;2023-12-04T07:15:24;19.50;;;10.67;;
5702;SDS011;2876;51.738;10.050;2023-12-04T07:21:26;19.17;;;9.73;;
5702;SDS011;2876;51.738;10.050;2023-12-04T07:27:28;13.87;;;9.20;;
5702;SDS011;2876;51.738;10.050;2023-12-04T07:33:30;16.30;;;9.90;;
5702;SDS011;2876;51.738;10.050;2023-12-04T07:39:32;18.23;;;11.73;;
5702;SDS011;2876;51.738;10.050;2023-12-04T07:45:34;17.57;;;10.03;;
5702;SDS011;2876;51.738;10.050;2023-12-04T07:51:38;19.13;;;10.87;;
5702;SDS011;2876;51.738;10.050;2023-12-04T07:57:40;14.40;;;8.47;;
5702;SDS011;2876;51.738;10.050;2023-12-04T08:03:42;15.17;;;9.50;;
5702;SDS011;2876;51.738;10.050;2023-12-04T08:09:44;17.07;;;9.87;;
5702;SDS011;2876;51.738;10.050;2023-12-04T08:15:46;17.20;;;9.60;;
5702;SDS011;2876;51.738;10.050;2023-12-04T08:21:48;16.47;;;10.90;;
5702;SDS011;2876;51.738;10.050;2023-12-04T08:27:50;30.20;;;13.93;;
5702;SDS011;2876;51.738;10.050;2023-12-04T08:33:53;18.63;;;11.90;;
5702;SDS011;2876;51.738;10.050;2023-12-04T08:39:55;13.37;;;8.87;;
5702;SDS011;2876;51.738;10.050;2023-12-04T08:45:58;13.77;;;8.83;;
5702;SDS011;2876;51.738;10.050;2023-12-04T08:52:01;13.37;;;8.80;;
5702;SDS011;2876;51.738;10.050;2023-12-04T08:58:04;14.83;;;8.80;;
5702;SDS011;2876;51.738;10.050;2023-12-04T09:04:07;14.33;;;9.67;;
5702;SDS011;2876;51.738;10.050;2023-12-04T09:10:10;12.50;;;8.33;;
5702;SDS011;2876;51.738;10.050;2023-12-04T09:16:26;13.50;;;8.83;;
5702;SDS011;2876;51.738;10.050;2023-12-04T09:22:28;12.70;;;8.20;;
5702;SDS011;2876;51.738;10.050;2023-12-04T09:28:46;13.60;;;8.17;;
5702;SDS011;2876;51.738;10.050;2023-12-04T09:34:50;22.63;;;12.53;;
5702;SDS011;2876;51.738;10.050;2023-12-04T09:40:53;15.50;;;7.67;;
5702;SDS011;2876;51.738;10.050;2023-12-04T09:47:03;11.90;;;7.43;;
5702;SDS011;2876;51.738;10.050;2023-12-04T09:53:09;10.27;;;7.07;;
5702;SDS011;2876;51.738;10.050;2023-12-04T09:59:13;10.60;;;7.10;;
5702;SDS011;2876;51.738;10.050;2023-12-04T10:05:16;10.20;;;7.30;;
5702;SDS011;2876;51.738;10.050;2023-12-04T10:11:18;11.73;;;7.47;;
5702;SDS011;2876;51.738;10.050;2023-12-04T10:17:20;11.40;;;7.60;;
5702;SDS011;2876;51.738;10.050;2023-12-04T10:23:23;11.40;;;7.53;;
5702;SDS011;2876;51.738;10.050;2023-12-04T10:29:43;12.30;;;8.00;;
5702;SDS011;2876;51.738;10.050;2023-12-04T10:35:49;10.20;;;7.27;;
5702;SDS011;2876;51.738;10.050;2023-12-04T10:41:59;12.03;;;7.47;;
5702;SDS011;2876;51.738;10.050;2023-12-04T10:48:05;13.13;;;7.67;;
5702;SDS011;2876;51.738;10.050;2023-12-04T10:54:09;12.20;;;6.57;;
5702;SDS011;2876;51.738;10.050;2023-12-04T11:00:14;8.53;;;6.73;;
5702;SDS011;2876;51.738;10.050;2023-12-04T11:06:18;17.53;;;9.47;;
5702;SDS011;2876;51.738;10.050;2023-12-04T11:12:21;9.10;;;6.50;;
5702;SDS011;2876;51.738;10.050;2023-12-04T11:18:31;10.40;;;7.43;;
5702;SDS011;2876;51.738;10.050;2023-12-04T11:24:38;10.07;;;6.97;;
5702;SDS011;2876;51.738;10.050;2023-12-04T11:30:41;10.20;;;6.93;;
5702;SDS011;2876;51.738;10.050;2023-12-04T11:36:44;11.00;;;7.57;;
5702;SDS011;2876;51.738;10.050;2023-12-04T11:42:47;9.10;;;6.50;;
5702;SDS011;2876;51.738;10.050;2023-12-04T11:48:49;10.93;;;6.93;;
5702;SDS011;2876;51.738;10.050;2023-12-04T11:55:27;9.80;;;6.90;;
5702;SDS011;2876;51.738;10.050;2023-12-04T12:01:33;11.17;;;6.80;;
5702;SDS011;2876;51.738;10.050;2023-12-04T12:07:37;10.80;;;7.20;;
5702;SDS011;2876;51.738;10.050;2023-12-04T12:13:40;12.03;;;8.07;;
5702;SDS011;2876;51.738;10.050;2023-12-04T12:19:42;8.20;;;6.03;;
5702;SDS011;2876;51.738;10.050;2023-12-04T12:25:45;18.23;;;7.63;;
5702;SDS011;2876;51.738;10.050;2023-12-04T12:31:47;11.07;;;7.10;;
5702;SDS011;2876;51.738;10.050;2023-12-04T12:37:50;9.90;;;7.10;;
5702;SDS011;2876;51.738;10.050;2023-12-04T12:43:56;14.40;;;6.80;;
5702;SDS011;2876;51.738;10.050;2023-12-04T12:50:00;10.10;;;6.60;;
5702;SDS011;2876;51.738;10.050;2023-12-04T12:56:04;13.17;;;7.57;;
5702;SDS011;2876;51.738;10.050;2023-12-04T13:02:07;10.17;;;6.80;;
5702;SDS011;2876;51.738;10.050;2023-12-04T13:08:09;8.13;;;6.20;;
5702;SDS011;2876;51.738;10.050;2023-12-04T13:14:12;8.40;;;5.83;;
5702;SDS011;2876;51.738;10.050;2023-12-04T13:20:14;11.00;;;7.30;;
5702;SDS011;2876;51.738;10.050;2023-12-04T13:26:18;9.33;;;6.27;;
5702;SDS011;2876;51.738;10.050;2023-12-04T13:32:21;6.77;;;5.17;;
5702;SDS011;2876;51.738;10.050;2023-12-04T13:38:23;12.60;;;7.10;;
5702;SDS011;2876;51.738;10.050;2023-12-04T13:44:35;10.40;;;6.80;;
5702;SDS011;2876;51.738;10.050;2023-12-04T13:50:37;13.27;;;7.77;;
5702;SDS011;2876;51.738;10.050;2023-12-04T13:56:39;8.57;;;5.83;;
5702;SDS011;2876;51.738;10.050;2023-12-04T14:02:51;14.57;;;7.20;;
5702;SDS011;2876;51.738;10.050;2023-12-04T14:08:55;7.50;;;5.10;;
5702;SDS011;2876;51.738;10.050;2023-12-04T14:14:58;8.57;;;5.57;;
5702;SDS011;2876;51.738;10.050;2023-12-04T14:21:01;9.90;;;6.30;;
5702;SDS011;2876;51.738;10.050;2023-12-04T14:27:03;7.07;;;4.83;;
5702;SDS011;2876;51.738;10.050;2023-12-04T14:33:07;11.10;;;5.80;;
5702;SDS011;2876;51.738;10.050;2023-12-04T14:39:10;7.00;;;4.93;;
5702;SDS011;2876;51.738;10.050;2023-12-04T14:45:13;8.03;;;5.47;;
5702;SDS011;2876;51.738;10.050;2023-12-04T14:51:17;8.40;;;5.13;;
5702;SDS011;2876;51.738;10.050;2023-12-04T14:57:19;7.07;;;4.83;;
5702;SDS011;2876;51.738;10.050;2023-12-04T15:03:40;8.87;;;6.03;;
5702;SDS011;2876;51.738;10.050;2023-12-04T15:09:57;9.57;;;6.10;;
5702;SDS011;2876;51.738;10.050;2023-12-04T15:16:17;6.90;;;5.33;;
5702;SDS011;2876;51.738;10.050;2023-12-04T15:22:44;8.80;;;5.67;;
5702;SDS011;2876;51.738;10.050;2023-12-04T15:28:45;11.67;;;6.43;;
5702;SDS011;2876;51.738;10.050;2023-12-04T15:34:50;9.20;;;5.20;;
5702;SDS011;2876;51.738;10.050;2023-12-04T15:40:52;14.17;;;9.07;;
5702;SDS011;2876;51.738;10.050;2023-12-04T15:46:57;12.13;;;6.30;;
5702;SDS011;2876;51.738;10.050;2023-12-04T15:53:02;10.83;;;7.40;;
5702;SDS011;2876;51.738;10.050;2023-12-04T15:59:03;7.90;;;5.93;;
5702;SDS011;2876;51.738;10.050;2023-12-04T16:05:06;10.37;;;6.37;;
5702;SDS011;2876;51.738;10.050;2023-12-04T16:11:12;6.43;;;4.57;;
5702;SDS011;2876;51.738;10.050;2023-12-04T16:17:14;8.50;;;4.60;;
5702;SDS011;2876;51.738;10.050;2023-12-04T16:23:16;10.40;;;7.10;;
5702;SDS011;2876;51.738;10.050;2023-12-04T16:29:18;11.40;;;6.50;;
5702;SDS011;2876;51.738;10.050;2023-12-04T16:35:20;7.90;;;5.53;;
5702;SDS011;2876;51.738;10.050;2023-12-04T16:41:23;8.00;;;4.47;;
5702;SDS011;2876;51.738;10.050;2023-12-04T16:47:25;7.37;;;4.07;;
5702;SDS011;2876;51.738;10.050;2023-12-04T16:53:27;5.37;;;4.33;;
5702;SDS011;2876;51.738;10.050;2023-12-04T16:59:30;6.57;;;4.70;;
5702;SDS011;2876;51.738;10.050;2023-12-04T17:05:32;4.63;;;3.80;;
5702;SDS011;2876;51.738;10.050;2023-12-04T17:11:34;6.50;;;4.70;;
5702;SDS011;2876;51.738;10.050;2023-12-04T17:17:37;4.27;;;3.70;;
5702;SDS011;2876;51.738;10.050;2023-12-04T17:23:39;6.43;;;3.80;;
5702;SDS011;2876;51.738;10.050;2023-12-04T17:29:41;4.80;;;4.00;;
5702;SDS011;2876;51.738;10.050;2023-12-04T17:35:43;5.10;;;4.03;;
5702;SDS011;2876;51.738;10.050;2023-12-04T17:41:45;5.53;;;3.60;;
5702;SDS011;2876;51.738;10.050;2023-12-04T17:47:47;4.33;;;3.20;;
5702;SDS011;2876;51.738;10.050;2023-12-04T17:53:49;8.00;;;4.20;;
5702;SDS011;2876;51.738;10.050;2023-12-04T17:59:52;5.53;;;4.03;;
5702;SDS011;2876;51.738;10.050;2023-12-04T18:05:54;21.63;;;8.97;;
5702;SDS011;2876;51.738;10.050;2023-12-04T18:11:56;8.17;;;4.40;;
5702;SDS011;2876;51.738;10.050;2023-12-04T18:17:58;6.60;;;4.37;;
5702;SDS011;2876;51.738;10.050;2023-12-04T18:24:01;13.13;;;7.50;;
5702;SDS011;2876;51.738;10.050;2023-12-04T18:30:03;6.73;;;4.43;;
5702;SDS011;2876;51.738;10.050;2023-12-04T18:36:09;9.23;;;6.23;;
5702;SDS011;2876;51.738;10.050;2023-12-04T18:42:13;8.13;;;5.00;;
5702;SDS011;2876;51.738;10.050;2023-12-04T18:48:18;7.13;;;4.67;;
5702;SDS011;2876;51.738;10.050;2023-12-04T18:54:21;5.63;;;4.33;;
5702;SDS011;2876;51.738;10.050;2023-12-04T19:00:23;5.27;;;3.50;;
5702;SDS011;2876;51.738;10.050;2023-12-04T19:06:26;5.67;;;3.60;;
5702;SDS011;2876;51.738;10.050;2023-12-04T19:12:29;8.50;;;4.60;;
5702;SDS011;2876;51.738;10.050;2023-12-04T19:18:31;9.53;;;4.23;;
5702;SDS011;2876;51.738;10.050;2023-12-04T19:24:35;5.67;;;4.07;;
5702;SDS011;2876;51.738;10.050;2023-12-04T19:30:37;8.00;;;4.90;;
5702;SDS011;2876;51.738;10.050;2023-12-04T19:36:40;14.00;;;10.23;;
5702;SDS011;2876;51.738;10.050;2023-12-04T19:42:42;12.47;;;6.63;;
5702;SDS011;2876;51.738;10.050;2023-12-04T19:48:44;8.87;;;6.10;;
5702;SDS011;2876;51.738;10.050;2023-12-04T19:54:46;11.47;;;7.10;;
5702;SDS011;2876;51.738;10.050;2023-12-04T20:00:49;7.83;;;5.07;;
5702;SDS011;2876;51.738;10.050;2023-12-04T20:06:51;6.87;;;5.57;;
5702;SDS011;2876;51.738;10.050;2023-12-04T20:12:54;6.03;;;4.17;;
5702;SDS011;2876;51.738;10.050;2023-12-04T20:18:56;10.03;;;6.30;;
5702;SDS011;2876;51.738;10.050;2023-12-04T20:24:58;7.80;;;5.67;;
5702;SDS011;2876;51.738;10.050;2023-12-04T20:31:00;8.20;;;4.80;;
5702;SDS011;2876;51.738;10.050;2023-12-04T20:37:02;8.33;;;4.93;;
5702;SDS011;2876;51.738;10.050;2023-12-04T20:43:04;8.50;;;4.53;;
5702;SDS011;2876;51.738;10.050;2023-12-04T20:49:08;6.80;;;4.03;;
5702;SDS011;2876;51.738;10.050;2023-12-04T20:55:10;5.37;;;4.07;;
5702;SDS011;2876;51.738;10.050;2023-12-04T21:01:15;5.67;;;4.13;;
5702;SDS011;2876;51.738;10.050;2023-12-04T21:07:18;5.80;;;4.07;;
5702;SDS011;2876;51.738;10.050;2023-12-04T21:13:20;11.03;;;4.60;;
5702;SDS011;2876;51.738;10.050;2023-12-04T21:19:22;8.40;;;4.60;;
5702;SDS011;2876;51.738;10.050;2023-12-04T21:25:24;7.60;;;5.33;;
5702;SDS011;2876;51.738;10.050;2023-12-04T21:31:26;6.63;;;4.07;;
5702;SDS011;2876;51.738;10.050;2023-12-04T21:37:29;6.23;;;4.33;;
5702;SDS011;2876;51.738;10.050;2023-12-04T21:43:31;15.70;;;7.10;;
5702;SDS011;2876;51.738;10.050;2023-12-04T21:49:33;10.53;;;4.87;;
5702;SDS011;2876;51.738;10.050;2023-12-04T21:55:35;9.20;;;4.97;;
5702;SDS011;2876;51.738;10.050;2023-12-04T22:01:37;8.70;;;4.70;;
5702;SDS011;2876;51.738;10.050;2023-12-04T22:07:39;7.80;;;5.30;;
5702;SDS011;2876;51.738;10.050;2023-12-04T22:13:42;6.53;;;4.50;;
5702;SDS011;2876;51.738;10.050;2023-12-04T22:19:44;6.60;;;4.50;;
5702;SDS011;2876;51.738;10.050;2023-12-04T22:25:46;6.50;;;4.53;;
5702;SDS011;2876;51.738;10.050;2023-12-04T22:31:48;6.90;;;4.67;;
5702;SDS011;2876;51.738;10.050;2023-12-04T22:37:50;7.40;;;5.30;;
5702;SDS011;2876;51.738;10.050;2023-12-04T22:43:52;9.67;;;5.80;;
5702;SDS011;2876;51.738;10.050;2023-12-04T22:49:54;7.23;;;5.10;;
5702;SDS011;2876;51.738;10.050;2023-12-04T22:55:56;8.53;;;5.80;;
5702;SDS011;2876;51.738;10.050;2023-12-04T23:01:59;9.37;;;5.60;;
5702;SDS011;2876;51.738;10.050;2023-12-04T23:08:01;9.53;;;5.70;;
5702;SDS011;2876;51.738;10.050;2023-12-04T23:14:03;10.00;;;5.97;;
5702;SDS011;2876;51.738;10.050;2023-12-04T23:20:05;11.90;;;6.53;;
5702;SDS011;2876;51.738;10.050;2023-12-04T23:26:08;7.50;;;5.97;;
5702;SDS011;2876;51.738;10.050;2023-12-04T23:32:10;9.37;;;5.87;;
5702;SDS011;2876;51.738;10.050;2023-12-04T23:38:13;9.30;;;5.93;;
5702;SDS011;2876;51.738;10.050;2023-12-04T23:44:15;9.17;;;5.97;;
5702;SDS011;2876;51.738;10.050;2023-12-04T23:50:16;12.83;;;6.50;;
5702;SDS011;2876;51.738;10.050;2023-12-04T23:56:18;10.93;;;5.93;;
